createdAt,value
2022-12-17T00:04:21.436Z,27.20
2022-12-17T00:09:45.752Z,27.03
2022-12-17T00:15:08.765Z,23.80
2022-12-17T00:20:30.461Z,25.77
2022-12-17T00:25:50.451Z,26.83
2022-12-17T00:31:11.416Z,25.87
2022-12-17T00:36:31.777Z,25.83
2022-12-17T00:41:51.692Z,25.70
2022-12-17T00:47:11.708Z,26.33
2022-12-17T00:52:31.953Z,25.83
2022-12-17T00:57:52.156Z,25.13
2022-12-17T01:03:12.584Z,25.57
2022-12-17T01:08:33.883Z,25.53
2022-12-17T01:13:54.376Z,26.37
2022-12-17T01:19:17.605Z,26.43
2022-12-17T01:24:37.519Z,26.33
2022-12-17T01:29:59.240Z,26.27
2022-12-17T01:35:19.141Z,25.80
2022-12-17T01:40:39.338Z,26.67
2022-12-17T01:46:02.160Z,27.90
2022-12-17T01:51:23.515Z,26.60
2022-12-17T01:56:43.976Z,26.30
2022-12-17T02:02:05.692Z,27.17
2022-12-17T02:07:48.295Z,27.17
2022-12-17T02:13:15.920Z,27.17
2022-12-17T02:18:40.360Z,25.47
2022-12-17T02:24:23.779Z,26.90
2022-12-17T02:29:46.969Z,27.40
2022-12-17T02:35:07.770Z,28.43
2022-12-17T02:40:30.153Z,27.57
2022-12-17T02:45:51.427Z,26.17
2022-12-17T02:51:12.275Z,27.20
2022-12-17T02:56:32.753Z,27.27
2022-12-17T03:01:53.067Z,27.93
2022-12-17T03:07:13.177Z,27.67
2022-12-17T03:12:35.313Z,29.17
2022-12-17T03:17:55.515Z,26.60
2022-12-17T03:23:23.468Z,27.63
2022-12-17T03:28:43.869Z,27.40
2022-12-17T03:34:04.751Z,28.33
2022-12-17T03:39:25.001Z,27.53
2022-12-17T03:44:44.969Z,28.17
2022-12-17T03:50:04.928Z,27.07
2022-12-17T03:55:25.616Z,27.40
2022-12-17T04:00:45.653Z,27.10
2022-12-17T04:06:05.514Z,27.53
2022-12-17T04:11:25.649Z,27.17
2022-12-17T04:16:45.688Z,27.23
2022-12-17T04:22:05.692Z,29.17
2022-12-17T04:27:25.882Z,28.70
2022-12-17T04:32:45.827Z,27.33
2022-12-17T04:38:06.203Z,27.37
2022-12-17T04:43:31.006Z,28.37
2022-12-17T04:48:51.035Z,28.10
2022-12-17T04:54:11.047Z,28.30
2022-12-17T04:59:30.855Z,27.13
2022-12-17T05:04:53.958Z,27.17
2022-12-17T05:10:14.225Z,28.33
2022-12-17T05:15:34.277Z,26.50
2022-12-17T05:20:54.813Z,29.13
2022-12-17T05:26:27.165Z,26.60
2022-12-17T05:31:47.363Z,28.37
2022-12-17T05:37:09.000Z,26.50
2022-12-17T05:42:28.747Z,28.00
2022-12-17T05:47:48.885Z,27.63
2022-12-17T05:53:08.939Z,28.00
2022-12-17T05:58:30.058Z,29.23
2022-12-17T06:03:50.137Z,28.73
2022-12-17T06:09:10.175Z,28.07
2022-12-17T06:14:44.253Z,28.73
2022-12-17T06:20:04.245Z,27.73
2022-12-17T06:25:24.712Z,28.50
2022-12-17T06:30:44.990Z,27.27
2022-12-17T06:36:04.806Z,28.10
2022-12-17T06:41:25.080Z,31.23
2022-12-17T06:46:45.029Z,27.97
2022-12-17T06:52:05.303Z,28.20
2022-12-17T06:57:25.114Z,28.57
2022-12-17T07:02:45.223Z,27.33
2022-12-17T07:08:06.063Z,29.00
2022-12-17T07:13:27.138Z,28.57
2022-12-17T07:18:47.376Z,28.27
2022-12-17T07:24:07.592Z,28.83
2022-12-17T07:29:27.388Z,27.80
2022-12-17T07:34:47.435Z,29.13
2022-12-17T07:40:07.615Z,26.97
2022-12-17T07:45:28.053Z,27.70
2022-12-17T07:50:47.887Z,27.77
2022-12-17T07:56:08.453Z,28.97
2022-12-17T08:01:28.870Z,28.23
2022-12-17T08:06:49.398Z,31.10
2022-12-17T08:12:23.048Z,29.13
2022-12-17T08:17:43.369Z,29.90
2022-12-17T08:23:04.271Z,30.17
2022-12-17T08:28:49.470Z,29.87
2022-12-17T08:34:07.825Z,31.07
2022-12-17T08:39:28.658Z,33.27
2022-12-17T08:44:48.539Z,34.57
2022-12-17T08:50:08.320Z,35.33
2022-12-17T08:55:28.781Z,36.87
2022-12-17T09:00:48.855Z,35.57
2022-12-17T09:06:11.112Z,35.23
2022-12-17T09:11:31.356Z,38.10
2022-12-17T09:16:52.013Z,37.60
2022-12-17T09:22:12.316Z,36.20
2022-12-17T09:27:32.927Z,36.07
2022-12-17T09:32:56.117Z,36.53
2022-12-17T09:38:16.694Z,35.40
2022-12-17T09:43:47.067Z,36.47
2022-12-17T09:49:20.841Z,36.77
2022-12-17T09:54:46.282Z,35.27
2022-12-17T10:00:06.632Z,34.10
2022-12-17T10:05:39.848Z,33.67
2022-12-17T10:11:03.479Z,25.77
2022-12-17T10:16:44.419Z,28.87
2022-12-17T10:22:04.631Z,23.70
2022-12-17T10:27:29.019Z,22.63
2022-12-17T10:32:49.005Z,22.90
2022-12-17T10:38:09.740Z,23.83
2022-12-17T10:43:50.964Z,25.23
2022-12-17T10:49:22.083Z,27.33
2022-12-17T10:54:49.355Z,28.57
2022-12-17T11:00:10.171Z,29.50
2022-12-17T11:05:45.854Z,30.23
2022-12-17T11:11:20.252Z,30.13
2022-12-17T11:16:44.389Z,28.97
2022-12-17T11:22:09.663Z,31.57
2022-12-17T11:27:35.931Z,29.07
2022-12-17T11:33:03.328Z,31.97
2022-12-17T11:38:32.945Z,32.27
2022-12-17T11:43:56.280Z,31.00
2022-12-17T11:49:51.189Z,32.27
2022-12-17T11:55:29.035Z,32.83
2022-12-17T12:01:14.320Z,33.80
2022-12-17T12:07:05.514Z,34.17
2022-12-17T12:12:44.605Z,34.40
2022-12-17T12:18:22.538Z,32.20
2022-12-17T12:24:08.562Z,30.77
2022-12-17T12:29:31.765Z,33.37
2022-12-17T12:34:55.172Z,31.07
2022-12-17T12:40:24.282Z,29.03
2022-12-17T12:45:50.230Z,35.75
2022-12-17T12:51:36.209Z,27.70
2022-12-17T12:56:56.169Z,26.80
2022-12-17T13:02:16.790Z,25.53
2022-12-17T13:07:22.660Z,25.93
2022-12-17T13:12:33.639Z,25.37
2022-12-17T13:17:41.078Z,25.13
2022-12-17T13:23:06.446Z,23.70
2022-12-17T13:28:28.264Z,24.40
2022-12-17T13:33:44.416Z,23.67
2022-12-17T13:39:10.864Z,22.67
2022-12-17T13:44:24.937Z,22.67
2022-12-17T13:49:28.514Z,20.27
2022-12-17T13:54:30.289Z,20.20
2022-12-17T13:59:31.979Z,19.77
2022-12-17T14:04:33.727Z,20.37
2022-12-17T14:09:39.057Z,19.70
2022-12-17T14:14:43.624Z,17.07
2022-12-17T14:19:45.556Z,16.87
2022-12-17T14:24:47.267Z,18.10
2022-12-17T14:29:48.856Z,16.90
2022-12-17T14:34:51.337Z,18.00
2022-12-17T14:40:05.643Z,18.07
2022-12-17T14:45:22.959Z,17.53
2022-12-17T14:50:27.995Z,17.40
2022-12-17T14:55:55.247Z,17.40
2022-12-17T15:01:06.255Z,16.97
2022-12-17T15:06:11.839Z,17.07
2022-12-17T15:11:18.353Z,17.47
2022-12-17T15:16:19.987Z,17.23
2022-12-17T15:21:21.975Z,17.03
2022-12-17T15:26:24.092Z,16.00
2022-12-17T15:31:29.461Z,16.07
2022-12-17T15:36:33.638Z,15.57
2022-12-17T15:41:53.810Z,16.40
2022-12-17T15:46:55.561Z,14.93
2022-12-17T15:51:57.207Z,14.77
2022-12-17T15:56:58.852Z,14.87
2022-12-17T16:02:00.598Z,16.10
2022-12-17T16:07:04.299Z,17.07
2022-12-17T16:12:06.186Z,16.23
2022-12-17T16:17:07.775Z,16.50
2022-12-17T16:22:09.477Z,16.73
2022-12-17T16:27:11.104Z,17.13
2022-12-17T16:32:12.767Z,16.50
2022-12-17T16:37:14.371Z,17.07
2022-12-17T16:42:16.000Z,18.03
2022-12-17T16:47:17.618Z,17.03
2022-12-17T16:52:19.191Z,17.77
2022-12-17T16:57:20.787Z,18.37
2022-12-17T17:02:22.594Z,18.27
2022-12-17T17:07:24.480Z,19.53
2022-12-17T17:12:26.946Z,18.33
2022-12-17T17:17:54.470Z,19.03
2022-12-17T17:22:50.080Z,18.03
2022-12-17T17:27:51.683Z,19.90
2022-12-17T17:32:53.296Z,18.13
2022-12-17T17:37:54.958Z,18.57
2022-12-17T17:42:56.560Z,20.37
2022-12-17T17:47:58.151Z,19.17
2022-12-17T17:52:59.758Z,19.43
2022-12-17T17:58:01.994Z,19.60
2022-12-17T18:03:03.801Z,20.70
2022-12-17T18:08:05.844Z,20.10
2022-12-17T18:13:26.575Z,18.83
2022-12-17T18:18:28.237Z,18.57
2022-12-17T18:23:29.888Z,17.83
2022-12-17T18:28:31.492Z,18.43
2022-12-17T18:33:33.445Z,19.57
2022-12-17T18:38:36.193Z,18.80
2022-12-17T18:43:39.692Z,18.60
2022-12-17T18:48:41.349Z,18.87
2022-12-17T18:53:42.945Z,20.00
2022-12-17T18:58:44.622Z,20.00
2022-12-17T19:03:46.318Z,20.20
2022-12-17T19:08:48.764Z,19.07
2022-12-17T19:13:50.920Z,20.67
2022-12-17T19:19:01.262Z,20.03
2022-12-17T19:24:05.964Z,19.40
2022-12-17T19:29:08.536Z,19.53
2022-12-17T19:34:12.701Z,19.90
2022-12-17T19:39:17.304Z,20.13
2022-12-17T19:44:20.911Z,18.67
2022-12-17T19:49:22.715Z,17.93
2022-12-17T19:54:24.310Z,18.50
2022-12-17T19:59:26.425Z,18.60
2022-12-17T20:04:28.208Z,19.03
2022-12-17T20:09:29.963Z,19.60
2022-12-17T20:14:32.546Z,19.67
2022-12-17T20:19:34.908Z,20.23
2022-12-17T20:24:39.464Z,22.40
2022-12-17T20:29:41.174Z,20.50
2022-12-17T20:34:42.768Z,19.53
2022-12-17T20:39:44.565Z,19.43
2022-12-17T20:44:51.550Z,16.33
2022-12-17T20:49:55.016Z,17.57
2022-12-17T20:54:56.646Z,17.60
2022-12-17T20:59:58.258Z,16.63
2022-12-17T21:05:00.407Z,16.93
2022-12-17T21:10:02.027Z,16.97
2022-12-17T21:15:03.998Z,17.63
2022-12-17T21:20:06.745Z,17.07
2022-12-17T21:25:11.785Z,16.57
2022-12-17T21:30:13.768Z,18.80
2022-12-17T21:35:17.775Z,16.17
2022-12-17T21:40:19.851Z,18.23
2022-12-17T21:45:21.477Z,17.53
2022-12-17T21:50:23.367Z,18.37
2022-12-17T21:55:25.617Z,17.73
2022-12-17T22:00:27.404Z,17.90
2022-12-17T22:05:29.315Z,17.97
2022-12-17T22:10:43.004Z,18.50
2022-12-17T22:15:52.825Z,18.53
2022-12-17T22:20:59.259Z,19.67
2022-12-17T22:26:00.895Z,18.27
2022-12-17T22:31:26.806Z,18.20
2022-12-17T22:39:51.485Z,18.77
2022-12-17T22:44:37.552Z,17.73
2022-12-17T22:47:32.744Z,18.63
2022-12-17T22:52:34.513Z,17.60
2022-12-17T22:57:38.526Z,17.33
2022-12-17T23:02:40.664Z,18.37
2022-12-17T23:07:42.382Z,17.23
2022-12-17T23:12:50.773Z,17.43
2022-12-17T23:17:54.406Z,17.43
2022-12-17T23:22:56.825Z,17.37
2022-12-17T23:27:58.791Z,18.27
2022-12-17T23:33:00.590Z,17.40
2022-12-17T23:38:02.436Z,16.53
2022-12-17T23:43:04.206Z,17.10
2022-12-17T23:48:07.840Z,16.70
2022-12-17T23:53:09.438Z,16.23
2022-12-17T23:58:11.057Z,19.07
